Ultralight Friuli Airfield

IT-0173 · Friuli Venezia Giulia, 意大利

罗盘
风向 的 风向 的 风向 到 风向 070°
风: 9 kt, 3 beaufort

添加一条跑道以查看侧风和逆风信息。

添置 跑道
0 1.000 2.000 3.000 4.000 5.000
METAR LIVT 272355Z AUTO 07009KT 030V110 //// 07/01 Q1022

METAR Aviosuperficie Ultralight Friuli - IT-0173

Aviosuperficie Ultralight Friuli是,意大利中的小机场。 该领域的国际民航组织标志是IT-0173.

这份报告是针对2022年11月28日 00:55, 当地时间在Trieste进行的。

机场观察

风向为070°,速度为9 kt。 风向在030°和110°之间变化。

温度为7 °C,阵风为3 °C。 露点为1 °C,相对湿度为66%。 海平面上的气压为1022 hPa (QNH)。

白天

今天,太阳从07:23升起,在16:24降落。 这适用于Aviosuperficie Ultralight Friuli,世界夏令时可能有所不同。 当地时间与世界标准时间之间的时差为+1 小时。 当前,没有夏令时有效。

公司介绍

我们没有关于这个机场的公司信息。

体会

到Vliegles.nl去找飞行课程,跳伞和其他飞行体验。 浏览页面,了解Aviosuperficie Ultralight Friuli附近所有可用的活动。 你也可以使用搜索功能来寻找你所在地附近的特定飞行课程、跳伞或其他飞行体验。

温度 & 天气

温度 7 °C
露点 1 °C
相对湿度 66%
风寒 3 °C
Kp-index 2 (0-9)

白天

日出
07:20 (5:44)
中午
11:52
日落
16:24

小工具

你想在你的网站上有一个关于Aviosuperficie Ultralight Friuli的当前航空天气(METAR)的小部件吗?

显示HTML代码

我们和第三方通过cookies跟踪您在我们网站上的互联网行为。如果你继续,我们认为你同意我们的饼干政策